createdAt,value
2018-04-10T00:01:04.935Z,44.47
2018-04-10T00:02:11.015Z,44.83
2018-04-10T00:03:15.221Z,52.03
2018-04-10T00:04:22.770Z,46.67
2018-04-10T00:05:37.199Z,47.60
2018-04-10T00:06:41.831Z,47.47
2018-04-10T00:07:46.050Z,47.20
2018-04-10T00:08:53.790Z,53.73
2018-04-10T00:10:03.593Z,44.93
2018-04-10T00:11:10.378Z,50.83
2018-04-10T00:12:14.591Z,47.60
2018-04-10T00:13:18.818Z,50.27
2018-04-10T00:14:31.618Z,53.67
2018-04-10T00:15:37.808Z,45.83
2018-04-10T00:16:42.267Z,44.63
2018-04-10T00:17:46.529Z,47.40
2018-04-10T00:18:57.104Z,48.17
2018-04-10T00:20:04.790Z,51.00
2018-04-10T00:21:10.369Z,46.90
2018-04-10T00:22:14.593Z,51.03
2018-04-10T00:23:18.852Z,45.37
2018-04-10T00:24:27.491Z,48.43
2018-04-10T00:25:34.684Z,52.87
2018-04-10T00:26:40.956Z,47.97
2018-04-10T00:27:47.061Z,45.00
2018-04-10T00:28:57.642Z,47.67
2018-04-10T00:30:05.059Z,52.33
2018-04-10T00:31:10.646Z,48.47
2018-04-10T00:32:15.642Z,54.23
2018-04-10T00:33:20.197Z,44.00
2018-04-10T00:34:31.978Z,49.90
2018-04-10T00:35:38.780Z,47.57
2018-04-10T00:36:43.169Z,49.40
2018-04-10T00:37:54.274Z,46.20
2018-04-10T00:39:03.177Z,50.70
2018-04-10T00:40:09.130Z,48.00
2018-04-10T00:41:14.120Z,48.73
2018-04-10T00:42:18.315Z,45.23
2018-04-10T00:43:34.904Z,46.87
2018-04-10T00:44:40.528Z,48.63
2018-04-10T00:45:45.155Z,45.33
2018-04-10T00:46:49.363Z,50.93
2018-04-10T00:47:59.668Z,52.40
2018-04-10T00:49:07.518Z,49.87
2018-04-10T00:50:11.751Z,49.50
2018-04-10T00:51:24.411Z,52.80
2018-04-10T00:52:32.608Z,44.90
2018-04-10T00:53:39.551Z,46.70
2018-04-10T00:54:43.791Z,47.63
2018-04-10T00:55:48.007Z,56.17
2018-04-10T00:57:08.338Z,52.17
2018-04-10T00:58:12.565Z,47.40
2018-04-10T00:59:16.777Z,45.93
2018-04-10T01:00:25.087Z,49.70
2018-04-10T01:01:32.053Z,51.73
2018-04-10T01:02:38.792Z,52.80
2018-04-10T01:03:43.765Z,52.93
2018-04-10T01:04:48.368Z,53.90
2018-04-10T01:05:59.012Z,53.63
2018-04-10T01:07:06.942Z,49.60
2018-04-10T01:08:11.171Z,50.23
2018-04-10T01:09:15.382Z,53.03
2018-04-10T01:10:19.620Z,54.70
2018-04-10T01:11:29.457Z,52.20
2018-04-10T01:12:41.306Z,52.50
2018-04-10T01:13:45.519Z,52.47
2018-04-10T01:14:49.958Z,51.30
2018-04-10T01:15:58.512Z,45.37
2018-04-10T01:17:06.151Z,48.20
2018-04-10T01:18:11.292Z,54.23
2018-04-10T01:19:15.509Z,55.07
2018-04-10T01:20:19.738Z,50.13
2018-04-10T01:21:31.879Z,53.20
2018-04-10T01:22:38.938Z,50.03
2018-04-10T01:23:43.899Z,51.00
2018-04-10T01:24:48.108Z,45.87
2018-04-10T01:26:00.883Z,52.60
2018-04-10T01:27:08.673Z,53.33
2018-04-10T01:28:13.154Z,49.43
2018-04-10T01:29:17.362Z,50.00
2018-04-10T01:30:24.852Z,53.63
2018-04-10T01:31:37.268Z,48.27
2018-04-10T01:32:41.893Z,51.97
2018-04-10T01:33:46.119Z,51.40
2018-04-10T01:34:52.287Z,51.17
2018-04-10T01:35:59.519Z,51.50
2018-04-10T01:37:06.178Z,53.80
2018-04-10T01:38:11.714Z,54.13
2018-04-10T01:39:15.938Z,52.27
2018-04-10T01:40:20.640Z,50.87
2018-04-10T01:41:30.782Z,58.30
2018-04-10T01:42:39.417Z,50.43
2018-04-10T01:43:43.640Z,55.93
2018-04-10T01:44:47.866Z,50.37
2018-04-10T01:45:58.255Z,57.00
2018-04-10T01:47:08.605Z,53.60
2018-04-10T01:48:12.803Z,54.37
2018-04-10T01:49:17.041Z,49.90
2018-04-10T01:50:24.698Z,47.60
2018-04-10T01:51:34.889Z,52.53
2018-04-10T01:52:40.352Z,55.30
2018-04-10T01:53:44.556Z,51.70
2018-04-10T01:54:49.608Z,51.30
2018-04-10T01:56:00.117Z,53.93
2018-04-10T01:57:10.016Z,51.77
2018-04-10T01:58:15.182Z,50.63
2018-04-10T01:59:19.437Z,57.00
2018-04-10T02:00:39.767Z,56.00
2018-04-10T02:01:43.964Z,62.80
2018-04-10T02:02:48.582Z,57.23
2018-04-10T02:03:57.556Z,54.93
2018-04-10T02:05:05.442Z,52.90
2018-04-10T02:06:11.205Z,53.43
2018-04-10T02:07:16.192Z,52.10
2018-04-10T02:08:24.409Z,59.10
2018-04-10T02:09:55.543Z,57.03
2018-04-10T02:11:09.082Z,53.20
2018-04-10T02:12:18.733Z,59.07
2018-04-10T02:13:29.299Z,56.03
2018-04-10T02:14:39.838Z,60.00
2018-04-10T02:15:47.910Z,52.20
2018-04-10T02:16:57.504Z,61.00
2018-04-10T02:18:03.380Z,50.43
2018-04-10T02:19:31.035Z,56.67
2018-04-10T02:20:36.879Z,54.90
2018-04-10T02:21:41.483Z,51.67
2018-04-10T02:22:45.706Z,48.10
2018-04-10T02:23:50.828Z,56.50
2018-04-10T02:25:01.811Z,52.00
2018-04-10T02:26:07.867Z,51.90
2018-04-10T02:27:12.063Z,56.63
2018-04-10T02:28:16.282Z,55.50
2018-04-10T02:29:20.689Z,57.90
2018-04-10T02:30:30.910Z,53.90
2018-04-10T02:31:39.082Z,50.57
2018-04-10T02:32:43.290Z,51.30
2018-04-10T02:33:47.506Z,53.07
2018-04-10T02:34:58.458Z,52.63
2018-04-10T02:36:04.318Z,57.40
2018-04-10T02:37:09.668Z,51.53
2018-04-10T02:38:13.916Z,49.97
2018-04-10T02:39:18.167Z,55.33
2018-04-10T02:40:26.977Z,51.40
2018-04-10T02:41:34.561Z,56.90
2018-04-10T02:42:40.738Z,53.03
2018-04-10T02:43:44.947Z,52.77
2018-04-10T02:44:49.147Z,53.50
2018-04-10T02:45:58.170Z,46.97
2018-04-10T02:47:09.806Z,51.87
2018-04-10T02:48:14.799Z,58.10
2018-04-10T02:49:19.008Z,53.27
2018-04-10T02:50:29.018Z,52.43
2018-04-10T02:51:36.605Z,55.20
2018-04-10T02:52:41.681Z,54.30
2018-04-10T02:53:45.902Z,58.70
2018-04-10T02:54:51.134Z,54.50
2018-04-10T02:56:01.687Z,54.67
2018-04-10T02:57:08.283Z,56.60
2018-04-10T02:58:12.483Z,53.53
2018-04-10T02:59:16.692Z,60.40
2018-04-10T03:00:22.810Z,52.67
2018-04-10T03:01:31.625Z,55.77
2018-04-10T03:02:40.746Z,58.87
2018-04-10T03:03:44.957Z,59.10
2018-04-10T03:04:49.176Z,56.53
2018-04-10T03:06:09.968Z,56.90
2018-04-10T03:07:14.189Z,55.43
2018-04-10T03:08:18.463Z,61.33
2018-04-10T03:09:25.881Z,50.43
2018-04-10T03:10:31.781Z,56.90
2018-04-10T03:11:39.147Z,50.50
2018-04-10T03:12:43.385Z,54.20
2018-04-10T03:13:47.631Z,60.03
2018-04-10T03:14:57.408Z,52.43
2018-04-10T03:16:03.764Z,56.70
2018-04-10T03:17:09.981Z,60.47
2018-04-10T03:18:14.963Z,55.43
2018-04-10T03:19:19.194Z,54.20
2018-04-10T03:20:29.283Z,60.23
2018-04-10T03:21:41.532Z,51.40
2018-04-10T03:22:45.811Z,54.80
2018-04-10T03:23:53.068Z,57.17
2018-04-10T03:25:03.827Z,62.60
2018-04-10T03:26:10.385Z,55.73
2018-04-10T03:27:14.612Z,53.27
2018-04-10T03:28:19.653Z,54.20
2018-04-10T03:29:28.938Z,59.30
2018-04-10T03:30:44.371Z,54.30
2018-04-10T03:31:50.765Z,58.70
2018-04-10T03:33:03.662Z,57.80
2018-04-10T03:34:10.097Z,53.00
2018-04-10T03:35:15.064Z,54.37
2018-04-10T03:36:19.263Z,52.40
2018-04-10T03:37:28.643Z,56.90
2018-04-10T03:38:36.881Z,60.57
2018-04-10T03:39:41.458Z,68.03
2018-04-10T03:40:46.765Z,68.43
2018-04-10T03:41:55.540Z,59.13
2018-04-10T03:43:04.453Z,59.40
2018-04-10T03:44:11.156Z,54.83
2018-04-10T03:45:15.355Z,58.63
2018-04-10T03:46:19.659Z,64.10
2018-04-10T03:47:28.805Z,58.40
2018-04-10T03:48:38.484Z,61.33
2018-04-10T03:49:46.891Z,55.20
2018-04-10T03:50:59.593Z,61.27
2018-04-10T03:52:07.433Z,66.53
2018-04-10T03:53:11.929Z,61.37
2018-04-10T03:54:16.151Z,63.53
2018-04-10T03:55:22.637Z,61.70
2018-04-10T03:56:30.734Z,54.53
2018-04-10T03:57:39.271Z,59.30
2018-04-10T03:58:43.870Z,60.30
2018-04-10T03:59:48.109Z,52.07
2018-04-10T04:00:56.076Z,62.23
2018-04-10T04:02:05.296Z,59.17
2018-04-10T04:03:10.925Z,58.27
2018-04-10T04:04:15.144Z,58.43
2018-04-10T04:05:19.345Z,62.17
2018-04-10T04:06:33.419Z,58.23
2018-04-10T04:07:40.510Z,64.20
2018-04-10T04:08:44.716Z,63.97
2018-04-10T04:09:48.929Z,58.20
2018-04-10T04:10:58.447Z,65.63
2018-04-10T04:12:07.924Z,60.63
2018-04-10T04:13:12.349Z,57.20
2018-04-10T04:14:17.345Z,71.47
2018-04-10T04:15:24.101Z,61.77
2018-04-10T04:16:46.868Z,65.50
2018-04-10T04:17:53.625Z,64.13
2018-04-10T04:19:19.126Z,61.13
2018-04-10T04:20:41.737Z,59.73
2018-04-10T04:23:37.284Z,65.43
2018-04-10T04:24:42.021Z,61.93
2018-04-10T04:25:46.228Z,61.67
2018-04-10T04:27:00.754Z,63.53
2018-04-10T04:28:05.994Z,66.90
2018-04-10T04:29:11.421Z,60.77
2018-04-10T04:30:16.393Z,59.03
2018-04-10T04:31:23.822Z,67.67
2018-04-10T04:32:31.707Z,72.20
2018-04-10T04:33:38.886Z,66.10
2018-04-10T04:34:43.092Z,63.37
2018-04-10T04:35:49.435Z,62.60
2018-04-10T04:36:59.079Z,69.13
2018-04-10T04:38:05.990Z,65.37
2018-04-10T04:39:10.390Z,68.50
2018-04-10T04:40:14.616Z,62.03
2018-04-10T04:41:18.843Z,56.67
2018-04-10T04:42:25.943Z,63.37
2018-04-10T04:43:34.398Z,66.67
2018-04-10T04:44:39.719Z,67.33
2018-04-10T04:45:43.935Z,73.17
2018-04-10T04:46:48.147Z,67.33
2018-04-10T04:47:57.165Z,66.50
2018-04-10T04:49:05.506Z,61.13
2018-04-10T04:50:10.784Z,65.97
2018-04-10T04:51:14.991Z,63.03
2018-04-10T04:52:19.194Z,64.80
2018-04-10T04:53:31.252Z,61.70
2018-04-10T04:54:40.892Z,63.43
2018-04-10T04:55:45.122Z,67.00
2018-04-10T04:56:50.549Z,63.30
2018-04-10T04:57:59.829Z,65.93
2018-04-10T04:59:05.675Z,62.70
2018-04-10T05:00:11.030Z,61.07
2018-04-10T05:01:15.228Z,65.77
2018-04-10T05:02:19.518Z,69.33
2018-04-10T05:03:29.679Z,66.53
2018-04-10T05:04:36.628Z,66.33
2018-04-10T05:05:40.980Z,69.63
2018-04-10T05:06:45.242Z,59.10
2018-04-10T05:07:49.502Z,68.07
2018-04-10T05:08:58.724Z,72.27
2018-04-10T05:10:04.273Z,60.40
2018-04-10T05:11:09.011Z,71.30
2018-04-10T05:12:13.225Z,66.40
2018-04-10T05:13:17.466Z,65.97
2018-04-10T05:14:25.378Z,62.33
2018-04-10T05:15:34.091Z,64.90
2018-04-10T05:16:38.625Z,63.80
2018-04-10T05:17:43.277Z,72.53
2018-04-10T05:18:47.481Z,62.33
2018-04-10T05:19:52.010Z,61.63
2018-04-10T05:20:58.551Z,60.33
2018-04-10T05:22:04.736Z,62.93
2018-04-10T05:23:09.151Z,61.33
2018-04-10T05:24:13.356Z,67.53
2018-04-10T05:25:17.564Z,72.00
2018-04-10T05:26:27.247Z,61.93
2018-04-10T05:27:33.594Z,59.80
2018-04-10T05:28:41.820Z,62.27
2018-04-10T05:29:46.074Z,65.23
2018-04-10T05:30:50.523Z,62.37
2018-04-10T05:32:02.106Z,69.77
2018-04-10T05:33:10.343Z,62.80
2018-04-10T05:34:15.373Z,64.73
2018-04-10T05:35:21.823Z,69.63
2018-04-10T05:36:29.674Z,59.57
2018-04-10T05:37:37.259Z,69.83
2018-04-10T05:38:42.250Z,67.27
2018-04-10T05:39:46.480Z,70.10
2018-04-10T05:40:53.827Z,62.03
2018-04-10T05:42:02.412Z,69.77
2018-04-10T05:43:13.333Z,63.23
2018-04-10T05:44:18.282Z,73.67
2018-04-10T05:45:27.157Z,61.67
2018-04-10T05:46:33.632Z,69.63
2018-04-10T05:47:39.275Z,59.83
2018-04-10T05:48:43.502Z,62.07
2018-04-10T05:49:48.549Z,64.03
2018-04-10T05:50:56.881Z,71.07
2018-04-10T05:52:05.279Z,66.03
2018-04-10T05:53:10.297Z,64.63
2018-04-10T05:54:14.573Z,69.73
2018-04-10T05:55:18.843Z,72.43
2018-04-10T05:56:28.885Z,77.07
2018-04-10T05:57:38.307Z,64.07
2018-04-10T05:58:42.563Z,61.70
2018-04-10T05:59:46.761Z,68.57
2018-04-10T06:00:55.332Z,72.93
2018-04-10T06:02:02.946Z,69.50
2018-04-10T06:03:08.952Z,66.80
2018-04-10T06:04:13.160Z,74.50
2018-04-10T06:05:17.377Z,70.63
2018-04-10T06:06:23.525Z,70.17
2018-04-10T06:07:31.108Z,70.67
2018-04-10T06:08:38.888Z,69.00
2018-04-10T06:09:43.910Z,66.07
2018-04-10T06:10:48.116Z,66.70
2018-04-10T06:11:57.536Z,63.90
2018-04-10T06:13:04.838Z,64.43
2018-04-10T06:14:11.906Z,70.93
2018-04-10T06:15:16.119Z,67.03
2018-04-10T06:16:21.440Z,73.03
2018-04-10T06:17:31.151Z,64.20
2018-04-10T06:18:38.840Z,66.80
2018-04-10T06:19:43.902Z,62.40
2018-04-10T06:20:48.125Z,65.33
2018-04-10T06:21:58.747Z,65.37
2018-04-10T06:23:06.530Z,65.97
2018-04-10T06:24:11.121Z,58.47
2018-04-10T06:25:15.339Z,61.17
2018-04-10T06:26:19.561Z,63.37
2018-04-10T06:27:34.738Z,61.93
2018-04-10T06:28:41.928Z,66.93
2018-04-10T06:29:46.910Z,62.90
2018-04-10T06:30:54.012Z,58.37
2018-04-10T06:32:06.187Z,67.67
2018-04-10T06:33:13.237Z,67.87
2018-04-10T06:34:17.508Z,58.63
2018-04-10T06:35:25.868Z,65.43
2018-04-10T06:36:34.272Z,67.60
2018-04-10T06:37:40.238Z,71.93
2018-04-10T06:38:44.494Z,69.30
2018-04-10T06:39:48.739Z,66.90
2018-04-10T06:41:17.868Z,66.30
2018-04-10T06:42:28.751Z,65.47
2018-04-10T06:43:34.052Z,64.17
2018-04-10T06:44:38.836Z,69.63
2018-04-10T06:45:43.129Z,73.47
2018-04-10T06:46:47.356Z,67.97
2018-04-10T06:47:54.563Z,65.53
2018-04-10T06:49:02.383Z,63.20
2018-04-10T06:50:08.928Z,67.03
2018-04-10T06:51:13.901Z,69.03
2018-04-10T06:52:18.129Z,64.93
2018-04-10T06:53:26.093Z,67.40
2018-04-10T06:54:35.096Z,62.70
2018-04-10T06:55:39.340Z,70.53
2018-04-10T06:56:43.532Z,65.17
2018-04-10T06:57:47.798Z,70.43
2018-04-10T06:58:52.590Z,65.03
2018-04-10T06:59:58.054Z,58.53
2018-04-10T07:01:03.801Z,75.17
2018-04-10T07:02:08.030Z,60.77
2018-04-10T07:03:12.483Z,59.70
2018-04-10T07:04:16.690Z,64.90
2018-04-10T07:05:22.648Z,64.27
2018-04-10T07:06:28.586Z,65.67
2018-04-10T07:07:34.476Z,70.47
2018-04-10T07:08:39.363Z,61.73
2018-04-10T07:09:43.578Z,62.27
2018-04-10T07:10:47.813Z,68.27
2018-04-10T07:11:54.624Z,60.13
2018-04-10T07:12:59.400Z,73.07
2018-04-10T07:14:03.722Z,62.40
2018-04-10T07:15:07.961Z,62.63
2018-04-10T07:16:12.165Z,63.77
2018-04-10T07:17:16.470Z,64.33
2018-04-10T07:18:20.742Z,65.23
2018-04-10T07:19:26.043Z,62.70
2018-04-10T07:20:31.258Z,65.37
2018-04-10T07:21:37.505Z,68.47
2018-04-10T07:22:41.696Z,58.87
2018-04-10T07:23:45.890Z,66.20
2018-04-10T07:24:50.639Z,61.30
2018-04-10T07:25:58.441Z,62.03
2018-04-10T07:27:03.828Z,81.40
2018-04-10T07:28:10.020Z,71.27
2018-04-10T07:29:14.213Z,65.80
2018-04-10T07:30:18.450Z,71.63
2018-04-10T07:31:26.243Z,65.97
2018-04-10T07:32:33.925Z,70.13
2018-04-10T07:33:38.917Z,66.37
2018-04-10T07:34:43.141Z,61.30
2018-04-10T07:35:48.104Z,65.97
2018-04-10T07:36:55.027Z,66.83
2018-04-10T07:37:59.381Z,81.03
2018-04-10T07:39:04.482Z,65.50
2018-04-10T07:40:09.442Z,72.50
2018-04-10T07:41:13.667Z,59.60
2018-04-10T07:42:17.872Z,61.07
2018-04-10T07:43:22.530Z,71.20
2018-04-10T07:44:32.646Z,58.63
2018-04-10T07:45:37.977Z,62.60
2018-04-10T07:46:42.168Z,63.10
2018-04-10T07:47:46.364Z,63.77
2018-04-10T07:48:53.091Z,77.33
2018-04-10T07:50:02.285Z,65.13
2018-04-10T07:51:09.115Z,61.90
2018-04-10T07:52:13.346Z,67.30
2018-04-10T07:53:18.313Z,60.40
2018-04-10T07:54:29.330Z,65.23
2018-04-10T07:55:36.738Z,66.20
2018-04-10T07:56:41.208Z,62.00
2018-04-10T07:57:45.422Z,64.33
2018-04-10T07:58:49.654Z,63.93
2018-04-10T07:59:58.973Z,57.20
2018-04-10T08:01:06.290Z,63.13
2018-04-10T08:02:10.966Z,62.10
2018-04-10T08:03:15.163Z,66.53
2018-04-10T08:04:19.370Z,63.07
2018-04-10T08:05:28.800Z,63.77
2018-04-10T08:06:38.042Z,70.10
2018-04-10T08:07:43.165Z,62.70
2018-04-10T08:08:47.387Z,73.17
2018-04-10T08:09:54.837Z,66.00
2018-04-10T08:11:01.723Z,60.23
2018-04-10T08:12:09.013Z,70.53
2018-04-10T08:13:13.226Z,71.17
2018-04-10T08:14:17.445Z,64.83
2018-04-10T08:15:22.599Z,56.73
2018-04-10T08:16:29.095Z,63.33
2018-04-10T08:17:37.892Z,59.87
2018-04-10T08:18:43.402Z,59.10
2018-04-10T08:19:47.647Z,66.90
2018-04-10T08:20:53.803Z,56.37
2018-04-10T08:22:00.229Z,59.90
2018-04-10T08:23:06.488Z,59.77
2018-04-10T08:24:11.446Z,65.37
2018-04-10T08:25:15.651Z,60.83
2018-04-10T08:26:19.932Z,62.80
2018-04-10T08:27:29.561Z,66.97
2018-04-10T08:28:36.392Z,67.23
2018-04-10T08:29:40.941Z,72.83
2018-04-10T08:30:45.173Z,62.17
2018-04-10T08:31:49.370Z,59.63
2018-04-10T08:33:00.825Z,59.10
2018-04-10T08:34:07.815Z,61.03
2018-04-10T08:35:12.225Z,65.77
2018-04-10T08:36:16.469Z,70.90
2018-04-10T08:37:22.580Z,66.30
2018-04-10T08:38:29.759Z,68.60
2018-04-10T08:39:37.235Z,70.23
2018-04-10T08:40:42.230Z,70.53
2018-04-10T08:41:46.449Z,67.07
2018-04-10T08:42:53.996Z,57.57
2018-04-10T08:43:59.950Z,64.30
2018-04-10T08:45:07.704Z,64.43
2018-04-10T08:46:12.057Z,59.93
2018-04-10T08:47:16.252Z,58.50
2018-04-10T08:48:22.547Z,57.37
2018-04-10T08:49:29.313Z,64.33
2018-04-10T08:50:36.367Z,61.97
2018-04-10T08:51:41.000Z,61.90
2018-04-10T08:52:45.224Z,70.30
2018-04-10T08:53:49.541Z,69.93
2018-04-10T08:54:57.894Z,59.77
2018-04-10T08:56:04.103Z,67.17
2018-04-10T08:57:10.034Z,59.20
2018-04-10T08:58:14.295Z,66.17
2018-04-10T08:59:18.535Z,61.80
2018-04-10T09:00:26.910Z,67.90
2018-04-10T09:01:31.783Z,67.13
2018-04-10T09:02:37.164Z,64.23
2018-04-10T09:03:41.403Z,69.13
2018-04-10T09:04:45.604Z,65.03
2018-04-10T09:05:49.837Z,61.47
2018-04-10T09:06:56.519Z,66.40
2018-04-10T09:08:04.660Z,61.30
2018-04-10T09:09:10.220Z,69.40
2018-04-10T09:10:14.450Z,60.03
2018-04-10T09:11:18.641Z,60.27
2018-04-10T09:12:23.923Z,65.20
2018-04-10T09:13:30.394Z,62.60
2018-04-10T09:14:36.116Z,64.80
2018-04-10T09:15:40.418Z,58.33
2018-04-10T09:16:44.627Z,73.87
2018-04-10T09:17:48.839Z,71.60
2018-04-10T09:18:56.504Z,67.53
2018-04-10T09:20:01.858Z,62.97
2018-04-10T09:21:08.207Z,68.90
2018-04-10T09:22:12.412Z,64.57
2018-04-10T09:23:16.621Z,59.40
2018-04-10T09:24:23.194Z,66.33
2018-04-10T09:25:29.856Z,60.90
2018-04-10T09:26:38.044Z,65.33
2018-04-10T09:27:42.552Z,63.43
2018-04-10T09:28:46.757Z,59.67
2018-04-10T09:29:53.744Z,66.33
2018-04-10T09:31:01.841Z,65.57
2018-04-10T09:32:07.908Z,65.17
2018-04-10T09:33:12.140Z,67.90
2018-04-10T09:34:16.341Z,62.20
2018-04-10T09:35:24.294Z,61.90
2018-04-10T09:36:34.075Z,63.37
2018-04-10T09:37:42.299Z,68.10
2018-04-10T09:38:46.521Z,60.17
2018-04-10T09:39:52.989Z,70.13
2018-04-10T09:41:03.851Z,62.53
2018-04-10T09:42:09.100Z,60.70
2018-04-10T09:43:13.777Z,69.57
2018-04-10T09:44:17.968Z,64.87
2018-04-10T09:45:25.809Z,61.33
2018-04-10T09:46:33.071Z,66.97
2018-04-10T09:47:40.942Z,65.00
2018-04-10T09:48:45.180Z,61.37
2018-04-10T09:49:49.478Z,68.43
2018-04-10T09:50:57.473Z,62.30
2018-04-10T09:52:04.853Z,64.23
2018-04-10T09:53:10.281Z,65.50
2018-04-10T09:54:14.511Z,73.17
2018-04-10T09:55:18.761Z,66.60
2018-04-10T09:56:24.999Z,66.83
2018-04-10T09:57:31.302Z,64.57
2018-04-10T09:58:39.092Z,61.57
2018-04-10T09:59:43.297Z,60.97
2018-04-10T10:00:47.848Z,65.20
2018-04-10T10:01:57.829Z,61.90
2018-04-10T10:03:04.366Z,66.67
2018-04-10T10:04:09.418Z,70.70
2018-04-10T10:05:13.609Z,65.50
2018-04-10T10:06:18.570Z,63.37
2018-04-10T10:07:27.369Z,66.53
2018-04-10T10:08:34.466Z,62.60
2018-04-10T10:09:40.965Z,66.77
2018-04-10T10:10:45.167Z,60.57
2018-04-10T10:11:49.422Z,59.67
2018-04-10T10:12:56.661Z,65.77
2018-04-10T10:14:03.125Z,63.40
2018-04-10T10:15:08.349Z,66.93
2018-04-10T10:16:14.070Z,58.97
2018-04-10T10:17:18.343Z,69.07
2018-04-10T10:18:24.987Z,57.57
2018-04-10T10:19:31.651Z,75.73
2018-04-10T10:20:36.963Z,70.63
2018-04-10T10:21:41.608Z,65.50
2018-04-10T10:22:45.833Z,67.77
2018-04-10T10:23:50.091Z,67.90
2018-04-10T10:24:57.794Z,62.10
2018-04-10T10:26:04.743Z,66.97
2018-04-10T10:27:11.001Z,63.60
2018-04-10T10:28:15.251Z,63.37
2018-04-10T10:29:19.538Z,61.83
2018-04-10T10:30:25.991Z,61.53
2018-04-10T10:31:31.510Z,58.93
2018-04-10T10:32:37.302Z,65.73
2018-04-10T10:33:41.533Z,61.93
2018-04-10T10:34:45.911Z,63.37
2018-04-10T10:35:50.776Z,67.57
2018-04-10T10:36:57.898Z,67.27
2018-04-10T10:38:03.888Z,62.83
2018-04-10T10:39:09.223Z,59.53
2018-04-10T10:40:13.410Z,64.30
2018-04-10T10:41:17.670Z,66.07
2018-04-10T10:42:24.635Z,70.00
2018-04-10T10:43:30.564Z,60.30
2018-04-10T10:44:36.734Z,64.63
2018-04-10T10:45:41.154Z,61.77
2018-04-10T10:46:45.399Z,64.83
2018-04-10T10:47:49.662Z,64.67
2018-04-10T10:48:56.567Z,62.43
2018-04-10T10:50:01.961Z,63.53
2018-04-10T10:51:06.991Z,63.93
2018-04-10T10:52:11.219Z,67.67
2018-04-10T10:53:15.430Z,60.70
2018-04-10T10:54:19.670Z,61.37
2018-04-10T10:55:25.336Z,64.13
2018-04-10T10:56:30.755Z,65.10
2018-04-10T10:57:37.988Z,59.43
2018-04-10T10:58:42.218Z,68.23
2018-04-10T10:59:46.447Z,65.27
2018-04-10T11:00:52.411Z,68.30
2018-04-10T11:01:59.755Z,63.80
2018-04-10T11:03:06.125Z,64.77
2018-04-10T11:04:11.226Z,71.03
2018-04-10T11:05:16.202Z,63.20
2018-04-10T11:06:21.005Z,63.07
2018-04-10T11:07:28.577Z,67.67
2018-04-10T11:08:35.073Z,61.67
2018-04-10T11:09:39.926Z,59.67
2018-04-10T11:10:44.182Z,61.63
2018-04-10T11:11:48.407Z,66.87
2018-04-10T11:12:59.065Z,61.60
2018-04-10T11:14:04.339Z,63.73
2018-04-10T11:15:09.640Z,67.00
2018-04-10T11:16:13.865Z,63.20
2018-04-10T11:17:18.096Z,64.13
2018-04-10T11:18:28.121Z,61.70
2018-04-10T11:19:33.982Z,62.83
2018-04-10T11:20:39.117Z,71.07
2018-04-10T11:21:43.328Z,69.57
2018-04-10T11:22:47.558Z,74.23
2018-04-10T11:23:54.704Z,65.80
2018-04-10T11:25:01.746Z,61.10
2018-04-10T11:26:07.430Z,64.23
2018-04-10T11:27:11.723Z,70.53
2018-04-10T11:28:15.947Z,64.07
2018-04-10T11:29:20.280Z,64.93
2018-04-10T11:30:28.814Z,64.80
2018-04-10T11:31:35.643Z,61.80
2018-04-10T11:32:40.059Z,64.40
2018-04-10T11:33:44.284Z,71.53
2018-04-10T11:34:48.498Z,67.63
2018-04-10T11:35:55.093Z,76.10
2018-04-10T11:37:00.065Z,65.50
2018-04-10T11:38:05.080Z,63.23
2018-04-10T11:39:09.368Z,63.30
2018-04-10T11:40:13.581Z,62.93
2018-04-10T11:41:17.792Z,68.73
2018-04-10T11:42:23.680Z,70.03
2018-04-10T11:43:29.663Z,62.23
2018-04-10T11:44:34.252Z,61.63
2018-04-10T11:45:40.046Z,65.80
2018-04-10T11:46:44.278Z,62.57
2018-04-10T11:47:48.563Z,64.03
2018-04-10T11:48:54.600Z,62.53
2018-04-10T11:49:59.456Z,73.87
2018-04-10T11:51:05.404Z,70.70
2018-04-10T11:52:09.619Z,56.00
2018-04-10T11:53:13.858Z,66.50
2018-04-10T11:54:18.828Z,63.63
2018-04-10T11:55:26.144Z,65.73
2018-04-10T11:56:30.603Z,59.20
2018-04-10T11:57:36.061Z,70.90
2018-04-10T11:58:40.972Z,73.33
2018-04-10T11:59:45.173Z,66.87
2018-04-10T12:00:50.817Z,72.80
2018-04-10T12:01:57.557Z,68.00
2018-04-10T12:03:05.277Z,70.87
2018-04-10T12:04:09.742Z,75.13
2018-04-10T12:05:13.971Z,59.87
2018-04-10T12:06:18.229Z,67.70
2018-04-10T12:07:27.802Z,70.83
2018-04-10T12:08:33.165Z,65.53
2018-04-10T12:09:38.766Z,66.97
2018-04-10T12:10:42.977Z,67.07
2018-04-10T12:11:47.239Z,66.07
2018-04-10T12:12:54.465Z,64.43
2018-04-10T12:14:00.736Z,68.13
2018-04-10T12:15:06.825Z,66.97
2018-04-10T12:16:11.093Z,68.87
2018-04-10T12:17:15.438Z,71.80
2018-04-10T12:18:19.673Z,66.00
2018-04-10T12:19:25.278Z,65.30
2018-04-10T12:20:30.793Z,69.87
2018-04-10T12:21:37.009Z,68.30
2018-04-10T12:22:41.334Z,70.47
2018-04-10T12:23:45.544Z,69.67
2018-04-10T12:24:49.861Z,67.07
2018-04-10T12:25:57.820Z,69.73
2018-04-10T12:27:03.888Z,65.17
2018-04-10T12:28:08.576Z,69.40
2018-04-10T12:29:12.828Z,66.43
2018-04-10T12:30:17.028Z,67.20
2018-04-10T12:31:21.876Z,61.13
2018-04-10T12:32:29.747Z,61.47
2018-04-10T12:33:34.990Z,69.93
2018-04-10T12:34:40.197Z,66.40
2018-04-10T12:35:45.351Z,62.90
2018-04-10T12:36:49.596Z,72.93
2018-04-10T12:37:57.242Z,70.70
2018-04-10T12:39:04.413Z,69.30
2018-04-10T12:40:09.597Z,63.47
2018-04-10T12:41:14.598Z,60.37
2018-04-10T12:42:18.844Z,66.20
2018-04-10T12:43:27.274Z,62.43
2018-04-10T12:44:33.636Z,74.57
2018-04-10T12:45:39.232Z,65.63
2018-04-10T12:46:43.458Z,68.73
2018-04-10T12:47:47.713Z,70.60
2018-04-10T12:48:55.063Z,63.03
2018-04-10T12:50:01.323Z,60.17
2018-04-10T12:51:09.756Z,62.50
2018-04-10T12:52:14.041Z,64.43
2018-04-10T12:53:18.279Z,61.37
2018-04-10T12:54:26.169Z,56.43
2018-04-10T12:55:32.576Z,66.70
2018-04-10T12:56:39.454Z,64.10
2018-04-10T12:57:43.727Z,56.80
2018-04-10T12:58:47.920Z,67.07
2018-04-10T12:59:57.902Z,62.63
2018-04-10T13:01:04.711Z,66.63
2018-04-10T13:02:10.815Z,60.20
2018-04-10T13:03:15.067Z,65.90
2018-04-10T13:04:19.281Z,64.93
2018-04-10T13:05:30.031Z,62.00
2018-04-10T13:06:37.105Z,65.27
2018-04-10T13:07:41.812Z,63.97
2018-04-10T13:08:46.008Z,61.80
2018-04-10T13:09:50.556Z,67.23
2018-04-10T13:11:03.196Z,72.50
2018-04-10T13:12:10.697Z,59.00
2018-04-10T13:13:14.943Z,74.33
2018-04-10T13:14:19.167Z,69.40
2018-04-10T13:15:31.490Z,66.13
2018-04-10T13:16:38.472Z,57.47
2018-04-10T13:17:43.541Z,60.27
2018-04-10T13:18:48.531Z,63.07
2018-04-10T13:20:00.601Z,56.23
2018-04-10T13:21:08.775Z,58.93
2018-04-10T13:22:13.066Z,60.10
2018-04-10T13:23:17.301Z,63.13
2018-04-10T13:24:28.999Z,66.77
2018-04-10T13:25:36.629Z,61.13
2018-04-10T13:26:42.697Z,59.93
2018-04-10T13:27:46.960Z,64.13
2018-04-10T13:28:53.036Z,70.60
2018-04-10T13:30:04.051Z,64.47
2018-04-10T13:31:11.372Z,73.30
2018-04-10T13:32:15.605Z,70.50
2018-04-10T13:33:20.046Z,68.03
2018-04-10T13:34:30.173Z,74.80
2018-04-10T13:35:38.151Z,69.93
2018-04-10T13:36:42.455Z,67.33
2018-04-10T13:37:46.671Z,72.17
2018-04-10T13:38:53.978Z,68.53
2018-04-10T13:40:06.568Z,64.03
2018-04-10T13:41:12.546Z,69.60
2018-04-10T13:42:16.753Z,61.93
2018-04-10T13:44:35.047Z,62.57
2018-04-10T13:45:41.341Z,68.20
2018-04-10T13:46:45.583Z,68.10
2018-04-10T13:47:49.806Z,63.00
2018-04-10T13:49:02.321Z,70.93
2018-04-10T13:50:10.356Z,63.60
2018-04-10T13:51:14.569Z,69.97
2018-04-10T13:52:18.773Z,63.90
2018-04-10T13:53:29.891Z,59.27
2018-04-10T13:54:38.258Z,56.43
2018-04-10T13:55:42.501Z,57.80
2018-04-10T13:56:46.761Z,61.30
2018-04-10T13:57:59.044Z,62.33
2018-04-10T13:59:08.266Z,63.77
2018-04-10T14:00:12.520Z,58.57
2018-04-10T14:01:16.720Z,59.43
2018-04-10T14:02:26.437Z,52.20
2018-04-10T14:03:34.477Z,48.43
2018-04-10T14:04:39.797Z,59.80
2018-04-10T14:05:44.790Z,63.57
2018-04-10T14:06:49.006Z,61.23
2018-04-10T14:08:00.412Z,65.97
2018-04-10T14:09:08.385Z,65.97
2018-04-10T14:10:13.155Z,61.13
2018-04-10T14:11:17.375Z,60.50
2018-04-10T14:12:23.221Z,63.87
2018-04-10T14:13:32.688Z,63.37
2018-04-10T14:14:39.163Z,59.50
2018-04-10T14:15:43.474Z,58.83
2018-04-10T14:16:47.716Z,59.00
2018-04-10T14:18:02.675Z,61.10
2018-04-10T14:19:10.234Z,56.20